Berlin Tempelhof, Germany

2:50 PM CEST on September 01, 2015 (GMT +0200)
Berlin Hasenheide (Fontane) | | Change Station
CLOSE
Current Station
Personal Weather Station
Location: Berlin, BERLIN
Elevation: 164 ft
Nearby Weather Stations

Elev 164 ft 52.48 °N, 13.42 °E | Updated 1 second ago

Scattered Clouds
Scattered Clouds
89.4 °F
Feels Like 92 °F
N
0.2
Wind Variable Wind from South
Gusts 2.5 mph

Today
High -- | Low -- °F
--% Chance of Precip.
Yesterday
High -- | Low -- °F
Precip. -- in
6:16 AM 7:55 PM
Waning Gibbous, 89% visible
Pressure 29.74 in
Visibility 6.2 miles
Clouds Scattered Clouds 3700 ft
Heat Index 92 °F
Dew Point 65 °F
Humidity 45%
Rainfall 0.02 in
Snow Depth Not available.
UV 1.0 out of 12
Pollen Not available.
Air Quality Not available.
Flu Activity Not available.
METAR EDDT 011220Z 24011KT 210V280 9999 SCT037 27/17 Q1007 NOSIG
Pressure 29.74 in
Visibility 6.2 miles
Clouds Scattered Clouds 3700 ft
Heat Index 92 °F
Dew Point 65 °F
Humidity 45%
Rainfall 0.02 in
Snow Depth Not available.
UV 1.0 out of 12
Pollen Not available.
Air Quality Not available.
Flu Activity Not available.
METAR EDDT 011220Z 24011KT 210V280 9999 SCT037 27/17 Q1007 NOSIG

10-Day Weather Forecast

×

Almanac

Astronomy

Sep. 01, 2015 Rise Set
Actual Time
Civil Twilight
Nautical Twilight
Astronomical Twilight
Moon
Length of Visible Light
Length of Day
Tomorrow will be .
, % of the Moon is Illuminated

Today's Extremes

Country Highs Country Lows

Community

WunderPhotos

Upload Photos

1,851,510 photos uploaded!

WunderBlogs® & News

Nearby

Air Quality

  Air Quality AQ Index Pollutant
Not available.

Snow Depth

Station Depth Elevation

Earthquake Activity

City Distance Mag. Time & Date
Minimum magnitude displayed is 2.5.

Coastal Water Temperatures

Place Temperature

Stations

Nearby Weather Stations

Station Location Temp. Windchill Dew Point Humidity Wind Precip. Elev Updated Type